Danby Corners, Vermont
Current Conditions -  °F | °C
As of 11:35 AM on Saturday 22 Nov 2014 (Local Time) from KRUT Reporting Station
Scattered Clouds Scattered Clouds  
Wind Chill: 23°   Ceiling: Unl
Heat Index: 30°   Visibility: 10mi
Dew Point:   Wind: 8mph
Humidity: 34%   Direction: 210°SSW
Pressure: 30.18"   Gusts: 17mph
Location:  43.3492°N, 72.9643°W
Report Text: KRUT 221635Z 21007G15KT 10SM SCT110 M01/M15 A3018 RMK AO1
Loading
Personal Weather Stations






























Interactive Weather Map New forecast layout! Learn more

10-Day Weather Forecast

Advertisements
Track Severe Weather on mobile